sensor_id;sensor_type;location;lat;lon;timestamp;pressure;altitude;pressure_sealevel;temperature;humidity
21588;BME280;10956;48.878;13.316;2023-02-21T00:00:57;94480.31;;;4.88;100.00
21588;BME280;10956;48.878;13.316;2023-02-21T00:03:41;94489.94;;;4.88;100.00
21588;BME280;10956;48.878;13.316;2023-02-21T00:06:25;94485.97;;;4.85;100.00
21588;BME280;10956;48.878;13.316;2023-02-21T00:09:09;94482.78;;;4.83;100.00
21588;BME280;10956;48.878;13.316;2023-02-21T00:11:53;94477.78;;;4.81;100.00
21588;BME280;10956;48.878;13.316;2023-02-21T00:14:37;94474.47;;;4.74;100.00
21588;BME280;10956;48.878;13.316;2023-02-21T00:17:21;94472.88;;;4.73;100.00
21588;BME280;10956;48.878;13.316;2023-02-21T00:20:05;94469.81;;;4.76;100.00
21588;BME280;10956;48.878;13.316;2023-02-21T00:22:49;94472.44;;;4.76;100.00
21588;BME280;10956;48.878;13.316;2023-02-21T00:25:33;94474.47;;;4.74;100.00
21588;BME280;10956;48.878;13.316;2023-02-21T00:28:17;94471.28;;;4.72;100.00
21588;BME280;10956;48.878;13.316;2023-02-21T00:31:00;94467.31;;;4.70;100.00
21588;BME280;10956;48.878;13.316;2023-02-21T00:33:44;94470.38;;;4.67;100.00
21588;BME280;10956;48.878;13.316;2023-02-21T00:36:28;94465.38;;;4.65;100.00
21588;BME280;10956;48.878;13.316;2023-02-21T00:39:12;94472.97;;;4.67;100.00
21588;BME280;10956;48.878;13.316;2023-02-21T00:41:56;94475.81;;;4.65;100.00
21588;BME280;10956;48.878;13.316;2023-02-21T00:44:40;94475.22;;;4.63;100.00
21588;BME280;10956;48.878;13.316;2023-02-21T00:47:24;94481.91;;;4.59;100.00
21588;BME280;10956;48.878;13.316;2023-02-21T00:50:08;94478.16;;;4.55;100.00
21588;BME280;10956;48.878;13.316;2023-02-21T00:52:52;94474.41;;;4.51;100.00
21588;BME280;10956;48.878;13.316;2023-02-21T00:55:37;94468.81;;;4.47;100.00
21588;BME280;10956;48.878;13.316;2023-02-21T00:58:21;94478.53;;;4.40;100.00
21588;BME280;10956;48.878;13.316;2023-02-21T01:01:05;94477.75;;;4.40;100.00
21588;BME280;10956;48.878;13.316;2023-02-21T01:03:48;94465.72;;;4.39;100.00
21588;BME280;10956;48.878;13.316;2023-02-21T01:06:32;94463.25;;;4.44;100.00
21588;BME280;10956;48.878;13.316;2023-02-21T01:09:16;94460.84;;;4.42;100.00
21588;BME280;10956;48.878;13.316;2023-02-21T01:12:00;94455.28;;;4.39;100.00
21588;BME280;10956;48.878;13.316;2023-02-21T01:14:44;94456.88;;;4.40;100.00
21588;BME280;10956;48.878;13.316;2023-02-21T01:17:28;94449.84;;;4.40;100.00
21588;BME280;10956;48.878;13.316;2023-02-21T01:20:12;94454.50;;;4.38;100.00
21588;BME280;10956;48.878;13.316;2023-02-21T01:22:56;94454.13;;;4.35;100.00
21588;BME280;10956;48.878;13.316;2023-02-21T01:25:40;94451.38;;;4.30;100.00
21588;BME280;10956;48.878;13.316;2023-02-21T01:28:24;94457.84;;;4.27;100.00
21588;BME280;10956;48.878;13.316;2023-02-21T01:31:08;94450.94;;;4.33;100.00
21588;BME280;10956;48.878;13.316;2023-02-21T01:33:52;94450.50;;;4.36;100.00
21588;BME280;10956;48.878;13.316;2023-02-21T01:36:40;94437.31;;;4.31;100.00
21588;BME280;10956;48.878;13.316;2023-02-21T01:39:24;94435.72;;;4.30;100.00
21588;BME280;10956;48.878;13.316;2023-02-21T01:42:09;94438.56;;;4.28;100.00
21588;BME280;10956;48.878;13.316;2023-02-21T01:48:06;94432.41;;;4.22;100.00
21588;BME280;10956;48.878;13.316;2023-02-21T01:50:51;94431.41;;;4.24;100.00
21588;BME280;10956;48.878;13.316;2023-02-21T01:53:36;94426.63;;;4.20;100.00
21588;BME280;10956;48.878;13.316;2023-02-21T01:56:20;94432.63;;;4.21;100.00
21588;BME280;10956;48.878;13.316;2023-02-21T01:59:05;94423.44;;;4.18;100.00
21588;BME280;10956;48.878;13.316;2023-02-21T02:04:35;94420.34;;;4.10;100.00
21588;BME280;10956;48.878;13.316;2023-02-21T02:07:19;94416.34;;;4.07;100.00
21588;BME280;10956;48.878;13.316;2023-02-21T02:10:04;94416.78;;;4.04;100.00
21588;BME280;10956;48.878;13.316;2023-02-21T02:29:52;94405.00;;;3.83;100.00
21588;BME280;10956;48.878;13.316;2023-02-21T02:35:48;94392.63;;;3.79;100.00
21588;BME280;10956;48.878;13.316;2023-02-21T02:38:36;94388.28;;;3.73;100.00
21588;BME280;10956;48.878;13.316;2023-02-21T02:41:10;94397.13;;;3.72;100.00
21588;BME280;10956;48.878;13.316;2023-02-21T02:44:28;94399.16;;;3.70;100.00
21588;BME280;10956;48.878;13.316;2023-02-21T02:46:48;94399.59;;;3.67;100.00
21588;BME280;10956;48.878;13.316;2023-02-21T02:49:34;94400.59;;;3.66;100.00
21588;BME280;10956;48.878;13.316;2023-02-21T02:52:04;94402.47;;;3.59;100.00
21588;BME280;10956;48.878;13.316;2023-02-21T02:54:30;94406.75;;;3.35;100.00
21588;BME280;10956;48.878;13.316;2023-02-21T02:56:55;94414.47;;;3.23;100.00
21588;BME280;10956;48.878;13.316;2023-02-21T02:59:24;94413.31;;;3.19;100.00
21588;BME280;10956;48.878;13.316;2023-02-21T03:11:00;94405.50;;;3.19;100.00
21588;BME280;10956;48.878;13.316;2023-02-21T03:13:42;94400.88;;;3.21;100.00
21588;BME280;10956;48.878;13.316;2023-02-21T03:16:30;94394.84;;;3.20;100.00
21588;BME280;10956;48.878;13.316;2023-02-21T03:19:03;94411.28;;;3.21;100.00
21588;BME280;10956;48.878;13.316;2023-02-21T03:21:42;94414.91;;;3.20;100.00
21588;BME280;10956;48.878;13.316;2023-02-21T03:24:10;94419.53;;;3.18;100.00
21588;BME280;10956;48.878;13.316;2023-02-21T03:26:40;94418.56;;;3.12;100.00
21588;BME280;10956;48.878;13.316;2023-02-21T03:29:06;94421.81;;;3.08;100.00
21588;BME280;10956;48.878;13.316;2023-02-21T03:31:40;94421.38;;;3.11;100.00
21588;BME280;10956;48.878;13.316;2023-02-21T03:34:08;94424.56;;;3.13;100.00
21588;BME280;10956;48.878;13.316;2023-02-21T03:36:36;94418.94;;;3.16;100.00
21588;BME280;10956;48.878;13.316;2023-02-21T03:39:02;94415.31;;;3.17;100.00
21588;BME280;10956;48.878;13.316;2023-02-21T03:41:28;94422.13;;;3.18;100.00
21588;BME280;10956;48.878;13.316;2023-02-21T03:43:53;94422.13;;;3.18;100.00
21588;BME280;10956;48.878;13.316;2023-02-21T03:46:19;94426.75;;;3.16;100.00
21588;BME280;10956;48.878;13.316;2023-02-21T03:48:44;94423.56;;;3.14;100.00
21588;BME280;10956;48.878;13.316;2023-02-21T03:51:10;94430.22;;;3.10;100.00
21588;BME280;10956;48.878;13.316;2023-02-21T03:53:36;94426.06;;;3.02;100.00
21588;BME280;10956;48.878;13.316;2023-02-21T03:56:02;94413.47;;;2.99;100.00
21588;BME280;10956;48.878;13.316;2023-02-21T03:58:27;94424.09;;;2.98;100.00
21588;BME280;10956;48.878;13.316;2023-02-21T04:00:52;94425.09;;;2.97;100.00
21588;BME280;10956;48.878;13.316;2023-02-21T04:03:19;94428.28;;;2.99;100.00
21588;BME280;10956;48.878;13.316;2023-02-21T04:05:44;94425.47;;;3.00;100.00
21588;BME280;10956;48.878;13.316;2023-02-21T04:08:10;94422.66;;;3.02;100.00
21588;BME280;10956;48.878;13.316;2023-02-21T04:10:35;94421.81;;;3.08;100.00
21588;BME280;10956;48.878;13.316;2023-02-21T04:13:01;94417.34;;;3.15;100.00
21588;BME280;10956;48.878;13.316;2023-02-21T04:15:26;94424.47;;;3.26;100.00
21588;BME280;10956;48.878;13.316;2023-02-21T04:17:51;94416.94;;;3.36;100.00
21588;BME280;10956;48.878;13.316;2023-02-21T04:20:17;94422.31;;;3.41;100.00
21588;BME280;10956;48.878;13.316;2023-02-21T04:22:42;94407.84;;;3.45;100.00
21588;BME280;10956;48.878;13.316;2023-02-21T04:25:08;94417.81;;;3.48;100.00
21588;BME280;10956;48.878;13.316;2023-02-21T04:27:33;94416.38;;;3.52;100.00
21588;BME280;10956;48.878;13.316;2023-02-21T04:29:59;94417.41;;;3.51;100.00
21588;BME280;10956;48.878;13.316;2023-02-21T04:32:25;94420.56;;;3.53;100.00
21588;BME280;10956;48.878;13.316;2023-02-21T04:34:51;94416.47;;;3.64;100.00
21588;BME280;10956;48.878;13.316;2023-02-21T04:37:16;94412.13;;;3.76;100.00
21588;BME280;10956;48.878;13.316;2023-02-21T04:39:41;94421.00;;;3.87;100.00
21588;BME280;10956;48.878;13.316;2023-02-21T04:42:07;94420.13;;;3.93;100.00
21588;BME280;10956;48.878;13.316;2023-02-21T04:44:34;94412.69;;;3.97;100.00
21588;BME280;10956;48.878;13.316;2023-02-21T04:46:59;94421.00;;;4.05;100.00
21588;BME280;10956;48.878;13.316;2023-02-21T04:49:24;94424.75;;;4.09;100.00
21588;BME280;10956;48.878;13.316;2023-02-21T04:51:52;94424.75;;;4.09;100.00
21588;BME280;10956;48.878;13.316;2023-02-21T04:54:18;94426.22;;;4.05;100.00
21588;BME280;10956;48.878;13.316;2023-02-21T04:56:43;94422.59;;;4.06;100.00
21588;BME280;10956;48.878;13.316;2023-02-21T04:59:09;94416.13;;;4.09;100.00
21588;BME280;10956;48.878;13.316;2023-02-21T05:01:34;94421.44;;;4.02;100.00
21588;BME280;10956;48.878;13.316;2023-02-21T05:04:00;94412.94;;;4.07;100.00
21588;BME280;10956;48.878;13.316;2023-02-21T05:06:27;94418.22;;;4.18;100.00
21588;BME280;10956;48.878;13.316;2023-02-21T05:08:53;94414.16;;;4.22;100.00
21588;BME280;10956;48.878;13.316;2023-02-21T05:11:20;94409.72;;;4.23;100.00
21588;BME280;10956;48.878;13.316;2023-02-21T05:13:46;94416.19;;;4.20;100.00
21588;BME280;10956;48.878;13.316;2023-02-21T05:16:12;94417.34;;;4.25;100.00
21588;BME280;10956;48.878;13.316;2023-02-21T05:18:40;94410.22;;;4.32;100.00
21588;BME280;10956;48.878;13.316;2023-02-21T05:21:06;94412.81;;;4.32;100.00
21588;BME280;10956;48.878;13.316;2023-02-21T05:23:32;94405.56;;;4.34;100.00
21588;BME280;10956;48.878;13.316;2023-02-21T05:26:05;94409.34;;;4.38;100.00
21588;BME280;10956;48.878;13.316;2023-02-21T05:28:32;94404.25;;;4.43;100.00
21588;BME280;10956;48.878;13.316;2023-02-21T05:30:57;94405.16;;;4.48;100.00
21588;BME280;10956;48.878;13.316;2023-02-21T05:33:23;94396.91;;;4.51;100.00
21588;BME280;10956;48.878;13.316;2023-02-21T05:35:49;94399.16;;;4.48;100.00
21588;BME280;10956;48.878;13.316;2023-02-21T05:38:16;94392.47;;;4.52;100.00
21588;BME280;10956;48.878;13.316;2023-02-21T05:40:42;94406.09;;;4.54;100.00
21588;BME280;10956;48.878;13.316;2023-02-21T05:43:07;94404.84;;;4.57;100.00
21588;BME280;10956;48.878;13.316;2023-02-21T05:45:33;94403.47;;;4.54;100.00
21588;BME280;10956;48.878;13.316;2023-02-21T05:47:58;94393.84;;;4.54;100.00
21588;BME280;10956;48.878;13.316;2023-02-21T05:50:26;94408.38;;;4.62;100.00
21588;BME280;10956;48.878;13.316;2023-02-21T05:52:52;94406.34;;;4.64;100.00
21588;BME280;10956;48.878;13.316;2023-02-21T05:55:17;94404.31;;;4.66;100.00
21588;BME280;10956;48.878;13.316;2023-02-21T05:57:43;94407.94;;;4.65;100.00
21588;BME280;10956;48.878;13.316;2023-02-21T06:00:15;94406.78;;;4.61;100.00
21588;BME280;10956;48.878;13.316;2023-02-21T06:02:41;94405.44;;;4.59;100.00
21588;BME280;10956;48.878;13.316;2023-02-21T06:05:06;94411.66;;;4.58;100.00
21588;BME280;10956;48.878;13.316;2023-02-21T06:07:32;94411.00;;;4.62;100.00
21588;BME280;10956;48.878;13.316;2023-02-21T06:09:57;94413.72;;;4.67;100.00
21588;BME280;10956;48.878;13.316;2023-02-21T06:12:23;94418.94;;;4.67;100.00
21588;BME280;10956;48.878;13.316;2023-02-21T06:14:48;94425.09;;;4.73;100.00
21588;BME280;10956;48.878;13.316;2023-02-21T06:17:14;94424.75;;;4.69;100.00
21588;BME280;10956;48.878;13.316;2023-02-21T06:19:39;94422.00;;;4.64;100.00
21588;BME280;10956;48.878;13.316;2023-02-21T06:22:04;94415.19;;;4.63;100.00
21588;BME280;10956;48.878;13.316;2023-02-21T06:24:30;94419.19;;;4.66;100.00
21588;BME280;10956;48.878;13.316;2023-02-21T06:26:55;94417.03;;;4.74;100.00
21588;BME280;10956;48.878;13.316;2023-02-21T06:29:21;94417.72;;;4.81;100.00
21588;BME280;10956;48.878;13.316;2023-02-21T06:31:46;94416.84;;;4.88;100.00
21588;BME280;10956;48.878;13.316;2023-02-21T06:34:12;94419.13;;;4.96;100.00
21588;BME280;10956;48.878;13.316;2023-02-21T06:36:38;94413.44;;;4.99;100.00
21588;BME280;10956;48.878;13.316;2023-02-21T06:39:04;94409.81;;;5.00;100.00
21588;BME280;10956;48.878;13.316;2023-02-21T06:41:30;94407.78;;;5.02;100.00
21588;BME280;10956;48.878;13.316;2023-02-21T06:43:57;94405.16;;;5.02;100.00
21588;BME280;10956;48.878;13.316;2023-02-21T06:46:26;94415.16;;;5.05;100.00
21588;BME280;10956;48.878;13.316;2023-02-21T06:48:51;94411.41;;;5.12;100.00
21588;BME280;10956;48.878;13.316;2023-02-21T06:51:17;94410.75;;;5.17;100.00
21588;BME280;10956;48.878;13.316;2023-02-21T06:53:44;94417.09;;;5.21;100.00
21588;BME280;10956;48.878;13.316;2023-02-21T06:56:10;94421.88;;;5.24;100.00
21588;BME280;10956;48.878;13.316;2023-02-21T06:58:36;94422.78;;;5.30;100.00
21588;BME280;10956;48.878;13.316;2023-02-21T07:01:01;94425.63;;;5.28;100.00
21588;BME280;10956;48.878;13.316;2023-02-21T07:03:27;94426.66;;;5.27;100.00
21588;BME280;10956;48.878;13.316;2023-02-21T07:05:53;94426.66;;;5.27;100.00
21588;BME280;10956;48.878;13.316;2023-02-21T07:08:18;94426.19;;;5.30;100.00
21588;BME280;10956;48.878;13.316;2023-02-21T07:10:44;94430.75;;;5.35;100.00
21588;BME280;10956;48.878;13.316;2023-02-21T07:13:09;94423.59;;;5.42;100.00
21588;BME280;10956;48.878;13.316;2023-02-21T07:15:34;94429.59;;;5.42;100.00
21588;BME280;10956;48.878;13.316;2023-02-21T07:18:00;94421.88;;;5.47;100.00
21588;BME280;10956;48.878;13.316;2023-02-21T07:20:25;94419.25;;;5.47;100.00
21588;BME280;10956;48.878;13.316;2023-02-21T07:22:51;94417.31;;;5.55;100.00
21588;BME280;10956;48.878;13.316;2023-02-21T07:25:19;94429.38;;;5.56;100.00
21588;BME280;10956;48.878;13.316;2023-02-21T07:27:46;94430.06;;;5.51;100.00
21588;BME280;10956;48.878;13.316;2023-02-21T07:30:12;94427.31;;;5.58;100.00
21588;BME280;10956;48.878;13.316;2023-02-21T07:32:37;94431.63;;;5.64;100.00
21588;BME280;10956;48.878;13.316;2023-02-21T07:35:03;94438.47;;;5.65;100.00
21588;BME280;10956;48.878;13.316;2023-02-21T07:37:29;94431.19;;;5.67;100.00
21588;BME280;10956;48.878;13.316;2023-02-21T07:39:54;94433.34;;;5.70;100.00
21588;BME280;10956;48.878;13.316;2023-02-21T07:42:20;94439.59;;;5.69;100.00
21588;BME280;10956;48.878;13.316;2023-02-21T07:44:45;94442.78;;;5.71;100.00
21588;BME280;10956;48.878;13.316;2023-02-21T07:47:12;94442.31;;;5.74;100.00
21588;BME280;10956;48.878;13.316;2023-02-21T07:49:39;94440.16;;;5.71;100.00
21588;BME280;10956;48.878;13.316;2023-02-21T07:52:05;94451.19;;;5.73;100.00
21588;BME280;10956;48.878;13.316;2023-02-21T07:54:31;94450.72;;;5.76;100.00
21588;BME280;10956;48.878;13.316;2023-02-21T07:56:57;94447.09;;;5.77;100.00
21588;BME280;10956;48.878;13.316;2023-02-21T07:59:22;94456.06;;;5.81;100.00
21588;BME280;10956;48.878;13.316;2023-02-21T08:01:48;94453.44;;;5.81;100.00
21588;BME280;10956;48.878;13.316;2023-02-21T08:04:14;94456.63;;;5.83;100.00
21588;BME280;10956;48.878;13.316;2023-02-21T08:06:44;94463.00;;;5.87;100.00
21588;BME280;10956;48.878;13.316;2023-02-21T08:09:09;94463.34;;;5.91;100.00
21588;BME280;10956;48.878;13.316;2023-02-21T08:11:35;94461.31;;;5.93;100.00
21588;BME280;10956;48.878;13.316;2023-02-21T08:14:01;94460.84;;;5.96;100.00
21588;BME280;10956;48.878;13.316;2023-02-21T08:16:26;94454.94;;;6.00;100.00
21588;BME280;10956;48.878;13.316;2023-02-21T08:18:52;94455.50;;;6.02;100.00
21588;BME280;10956;48.878;13.316;2023-02-21T08:21:17;94458.66;;;6.04;100.00
21588;BME280;10956;48.878;13.316;2023-02-21T08:23:43;94460.25;;;6.05;100.00
21588;BME280;10956;48.878;13.316;2023-02-21T08:26:08;94458.22;;;6.07;100.00
21588;BME280;10956;48.878;13.316;2023-02-21T08:28:34;94463.34;;;6.02;100.00
21588;BME280;10956;48.878;13.316;2023-02-21T08:31:01;94463.34;;;6.02;100.00
21588;BME280;10956;48.878;13.316;2023-02-21T08:33:27;94458.88;;;6.14;100.00
21588;BME280;10956;48.878;13.316;2023-02-21T08:35:53;94467.03;;;6.30;100.00
21588;BME280;10956;48.878;13.316;2023-02-21T08:38:18;94472.97;;;6.54;100.00
21588;BME280;10956;48.878;13.316;2023-02-21T08:40:44;94470.19;;;6.72;100.00
21588;BME280;10956;48.878;13.316;2023-02-21T08:43:10;94462.25;;;6.84;100.00
21588;BME280;10956;48.878;13.316;2023-02-21T08:45:35;94464.66;;;7.02;100.00
21588;BME280;10956;48.878;13.316;2023-02-21T08:48:02;94465.97;;;7.16;100.00
21588;BME280;10956;48.878;13.316;2023-02-21T08:50:27;94474.47;;;7.40;100.00
21588;BME280;10956;48.878;13.316;2023-02-21T08:52:54;94477.78;;;7.69;100.00
21588;BME280;10956;48.878;13.316;2023-02-21T08:55:20;94474.47;;;7.95;100.00
21588;BME280;10956;48.878;13.316;2023-02-21T08:57:51;94476.34;;;8.17;100.00
21588;BME280;10956;48.878;13.316;2023-02-21T09:00:18;94476.47;;;8.27;100.00
21588;BME280;10956;48.878;13.316;2023-02-21T09:02:44;94464.31;;;8.21;100.00
21588;BME280;10956;48.878;13.316;2023-02-21T09:05:15;94483.47;;;8.21;100.00
21588;BME280;10956;48.878;13.316;2023-02-21T09:07:42;94485.53;;;8.36;100.00
21588;BME280;10956;48.878;13.316;2023-02-21T09:10:09;94474.22;;;8.57;100.00
21588;BME280;10956;48.878;13.316;2023-02-21T09:12:35;94483.84;;;8.73;100.00
21588;BME280;10956;48.878;13.316;2023-02-21T09:15:01;94488.13;;;8.80;100.00
21588;BME280;10956;48.878;13.316;2023-02-21T09:17:27;94496.59;;;8.87;100.00
21588;BME280;10956;48.878;13.316;2023-02-21T09:19:52;94495.63;;;8.93;100.00
21588;BME280;10956;48.878;13.316;2023-02-21T09:22:17;94490.84;;;8.90;100.00
21588;BME280;10956;48.878;13.316;2023-02-21T09:24:43;94491.44;;;8.97;100.00
21588;BME280;10956;48.878;13.316;2023-02-21T09:27:08;94497.59;;;9.07;100.00
21588;BME280;10956;48.878;13.316;2023-02-21T09:29:34;94491.91;;;9.16;100.00
21588;BME280;10956;48.878;13.316;2023-02-21T09:32:01;94497.44;;;9.19;100.00
21588;BME280;10956;48.878;13.316;2023-02-21T09:34:27;94501.56;;;9.10;100.00
21588;BME280;10956;48.878;13.316;2023-02-21T09:36:52;94494.19;;;9.07;100.00
21588;BME280;10956;48.878;13.316;2023-02-21T09:39:20;94510.78;;;9.13;100.00
21588;BME280;10956;48.878;13.316;2023-02-21T09:41:46;94497.94;;;9.16;100.00
21588;BME280;10956;48.878;13.316;2023-02-21T09:44:21;94497.41;;;9.14;100.00
21588;BME280;10956;48.878;13.316;2023-02-21T09:46:57;94493.28;;;9.23;100.00
21588;BME280;10956;48.878;13.316;2023-02-21T09:49:29;94496.34;;;9.42;100.00
21588;BME280;10956;48.878;13.316;2023-02-21T09:51:56;94495.06;;;9.50;100.00
21588;BME280;10956;48.878;13.316;2023-02-21T09:56:48;94491.88;;;9.43;100.00
21588;BME280;10956;48.878;13.316;2023-02-21T09:59:13;94481.81;;;9.34;100.00
21588;BME280;10956;48.878;13.316;2023-02-21T10:04:26;94484.56;;;9.50;100.00
21588;BME280;10956;48.878;13.316;2023-02-21T10:07:07;94479.09;;;9.56;100.00
21588;BME280;10956;48.878;13.316;2023-02-21T10:09:48;94470.47;;;9.66;100.00
21588;BME280;10956;48.878;13.316;2023-02-21T10:12:35;94468.91;;;9.70;100.00
21588;BME280;10956;48.878;13.316;2023-02-21T10:20:58;94472.03;;;9.62;100.00
21588;BME280;10956;48.878;13.316;2023-02-21T10:23:38;94479.59;;;9.53;100.00
21588;BME280;10956;48.878;13.316;2023-02-21T10:26:18;94471.38;;;9.45;100.00
21588;BME280;10956;48.878;13.316;2023-02-21T10:28:45;94482.13;;;9.43;100.00
21588;BME280;10956;48.878;13.316;2023-02-21T10:31:37;94483.97;;;9.43;100.00
21588;BME280;10956;48.878;13.316;2023-02-21T10:34:05;94487.69;;;9.47;100.00
21588;BME280;10956;48.878;13.316;2023-02-21T10:36:32;94484.06;;;9.53;100.00
21588;BME280;10956;48.878;13.316;2023-02-21T10:39:27;94484.84;;;9.53;100.00
21588;BME280;10956;48.878;13.316;2023-02-21T10:41:55;94475.41;;;9.57;100.00
21588;BME280;10956;48.878;13.316;2023-02-21T10:44:28;94473.09;;;9.66;100.00
21588;BME280;10956;48.878;13.316;2023-02-21T10:47:17;94478.28;;;9.56;100.00
21588;BME280;10956;48.878;13.316;2023-02-21T10:49:53;94471.44;;;9.55;100.00
21588;BME280;10956;48.878;13.316;2023-02-21T10:52:23;94465.69;;;9.58;100.00
21588;BME280;10956;48.878;13.316;2023-02-21T10:55:01;94463.00;;;9.53;100.00
21588;BME280;10956;48.878;13.316;2023-02-21T10:57:28;94465.09;;;9.51;100.00
21588;BME280;10956;48.878;13.316;2023-02-21T10:59:55;94461.63;;;9.45;100.00
21588;BME280;10956;48.878;13.316;2023-02-21T11:02:28;94461.38;;;9.47;100.00
21588;BME280;10956;48.878;13.316;2023-02-21T11:04:55;94450.91;;;9.52;100.00
21588;BME280;10956;48.878;13.316;2023-02-21T11:07:31;94457.81;;;9.63;100.00
21588;BME280;10956;48.878;13.316;2023-02-21T11:09:57;94453.72;;;9.82;100.00
21588;BME280;10956;48.878;13.316;2023-02-21T11:12:25;94457.53;;;10.01;100.00
21588;BME280;10956;48.878;13.316;2023-02-21T11:17:21;94461.13;;;10.32;99.89
21588;BME280;10956;48.878;13.316;2023-02-21T11:22:21;94445.66;;;10.51;99.15
21588;BME280;10956;48.878;13.316;2023-02-21T11:24:56;94447.00;;;10.64;98.54
21588;BME280;10956;48.878;13.316;2023-02-21T11:27:23;94440.94;;;10.63;97.76
21588;BME280;10956;48.878;13.316;2023-02-21T11:29:50;94433.28;;;10.52;98.85
21588;BME280;10956;48.878;13.316;2023-02-21T11:32:26;94425.31;;;10.37;99.74
21588;BME280;10956;48.878;13.316;2023-02-21T11:40:42;94416.59;;;10.31;100.00
21588;BME280;10956;48.878;13.316;2023-02-21T11:43:32;94420.56;;;10.28;100.00
21588;BME280;10956;48.878;13.316;2023-02-21T11:46:09;94417.84;;;10.18;100.00
21588;BME280;10956;48.878;13.316;2023-02-21T11:54:05;94411.06;;;10.27;100.00
21588;BME280;10956;48.878;13.316;2023-02-21T11:56:58;94412.97;;;10.42;100.00
21588;BME280;10956;48.878;13.316;2023-02-21T11:59:34;94408.22;;;10.39;100.00
21588;BME280;10956;48.878;13.316;2023-02-21T12:15:59;94390.34;;;10.61;100.00
21588;BME280;10956;48.878;13.316;2023-02-21T12:18:43;94399.81;;;10.57;100.00
21588;BME280;10956;48.878;13.316;2023-02-21T12:39:10;94363.47;;;9.87;100.00
21588;BME280;10956;48.878;13.316;2023-02-21T12:47:31;94356.16;;;9.99;100.00
21588;BME280;10956;48.878;13.316;2023-02-21T12:50:06;94345.94;;;10.18;100.00
21588;BME280;10956;48.878;13.316;2023-02-21T12:52:53;94340.75;;;10.33;100.00
21588;BME280;10956;48.878;13.316;2023-02-21T12:55:26;94340.53;;;10.55;100.00
21588;BME280;10956;48.878;13.316;2023-02-21T12:57:58;94346.06;;;10.63;100.00
21588;BME280;10956;48.878;13.316;2023-02-21T13:00:31;94343.97;;;10.76;100.00
21588;BME280;10956;48.878;13.316;2023-02-21T13:05:43;94331.84;;;11.10;100.00
21588;BME280;10956;48.878;13.316;2023-02-21T13:11:07;94325.78;;;11.20;100.00
21588;BME280;10956;48.878;13.316;2023-02-21T13:13:35;94323.41;;;10.98;100.00
21588;BME280;10956;48.878;13.316;2023-02-21T13:16:03;94325.53;;;10.91;100.00
21588;BME280;10956;48.878;13.316;2023-02-21T13:18:39;94326.84;;;10.88;100.00
21588;BME280;10956;48.878;13.316;2023-02-21T13:21:30;94315.50;;;10.88;100.00
21588;BME280;10956;48.878;13.316;2023-02-21T13:24:00;94312.09;;;11.03;100.00
21588;BME280;10956;48.878;13.316;2023-02-21T13:29:19;94310.50;;;11.12;100.00
21588;BME280;10956;48.878;13.316;2023-02-21T13:31:46;94310.72;;;11.25;100.00
21588;BME280;10956;48.878;13.316;2023-02-21T13:34:18;94312.56;;;11.40;100.00
21588;BME280;10956;48.878;13.316;2023-02-21T13:36:46;94313.56;;;11.54;99.82
21588;BME280;10956;48.878;13.316;2023-02-21T13:39:17;94314.38;;;11.55;99.41
21588;BME280;10956;48.878;13.316;2023-02-21T13:41:50;94312.75;;;11.64;98.89
21588;BME280;10956;48.878;13.316;2023-02-21T13:44:25;94312.75;;;11.64;98.69
21588;BME280;10956;48.878;13.316;2023-02-21T13:47:08;94306.97;;;11.52;99.13
21588;BME280;10956;48.878;13.316;2023-02-21T13:57:40;94306.22;;;11.41;100.00
21588;BME280;10956;48.878;13.316;2023-02-21T14:03:02;94304.41;;;11.21;100.00
21588;BME280;10956;48.878;13.316;2023-02-21T14:10:58;94298.09;;;11.07;100.00
21588;BME280;10956;48.878;13.316;2023-02-21T14:21:05;94287.81;;;11.00;100.00
21588;BME280;10956;48.878;13.316;2023-02-21T14:23:40;94285.97;;;10.96;100.00
21588;BME280;10956;48.878;13.316;2023-02-21T14:34:13;94277.56;;;10.68;100.00
21588;BME280;10956;48.878;13.316;2023-02-21T14:36:42;94271.75;;;10.56;100.00
21588;BME280;10956;48.878;13.316;2023-02-21T14:39:08;94274.91;;;10.38;100.00
21588;BME280;10956;48.878;13.316;2023-02-21T14:47:54;94275.44;;;10.30;100.00
21588;BME280;10956;48.878;13.316;2023-02-21T14:58:32;94270.69;;;10.78;100.00
21588;BME280;10956;48.878;13.316;2023-02-21T15:04:19;94268.06;;;10.78;100.00
21588;BME280;10956;48.878;13.316;2023-02-21T15:06:39;94265.44;;;10.67;100.00
21588;BME280;10956;48.878;13.316;2023-02-21T15:09:18;94266.75;;;10.60;100.00
21588;BME280;10956;48.878;13.316;2023-02-21T15:11:44;94273.34;;;10.67;100.00
21588;BME280;10956;48.878;13.316;2023-02-21T15:16:47;94264.38;;;10.68;100.00
21588;BME280;10956;48.878;13.316;2023-02-21T15:24:59;94251.72;;;10.60;100.00
21588;BME280;10956;48.878;13.316;2023-02-21T15:27:26;94263.84;;;10.51;100.00
21588;BME280;10956;48.878;13.316;2023-02-21T15:30:15;94258.06;;;10.49;100.00
21588;BME280;10956;48.878;13.316;2023-02-21T15:32:42;94264.38;;;10.48;100.00
21588;BME280;10956;48.878;13.316;2023-02-21T15:35:17;94261.22;;;10.51;100.00
21588;BME280;10956;48.878;13.316;2023-02-21T15:37:45;94260.16;;;10.52;100.00
21588;BME280;10956;48.878;13.316;2023-02-21T15:40:18;94260.69;;;10.54;100.00
21588;BME280;10956;48.878;13.316;2023-02-21T15:42:45;94265.44;;;10.52;100.00
21588;BME280;10956;48.878;13.316;2023-02-21T15:45:30;94262.00;;;10.47;100.00
21588;BME280;10956;48.878;13.316;2023-02-21T15:47:58;94273.06;;;10.44;100.00
21588;BME280;10956;48.878;13.316;2023-02-21T15:50:34;94271.22;;;10.39;100.00
21588;BME280;10956;48.878;13.316;2023-02-21T15:53:21;94263.84;;;10.31;100.00
21588;BME280;10956;48.878;13.316;2023-02-21T15:55:48;94263.31;;;10.24;100.00